Weather History for Ingleside, TX

Change the Weather History Date:

Tuesday, October 25, 2011

  Actual Average Record
Temperature  
Mean Temperature 80 °F -  
Max Temperature 87 °F - - ()
Min Temperature 72 °F - - ()
Cooling Degree Days 14    
Growing Degree Days 30 (Base 50)    
Moisture  
Dew Point 67 °F    
Average Humidity 65    
Maximum Humidity 85    
Minimum Humidity 46    
Precipitation  
Precipitation 0.00 in - - ()
Sea Level Pressure  
Sea Level Pressure 30.09 in    
Wind  
Wind Speed 8 mph (South)    
Max Wind Speed 18 mph    
Max Gust Speed 23 mph    
Visibility 10 miles    
Events      
T = Trace of Precipitation, MM = Missing Value Source: NWS Daily Summary

Daily Weather History Graph

Daily Weather History Graph

Search for Another Location

Airport:

Trip Planner

Search our weather history database for the weather conditions in past years. The results will help you decide how hot, cold, wet, or windy it might be!

Date:

Astronomy

Oct. 25, 2011 Rise Set
Actual Time 7:35 AM CDT 6:50 PM CDT
Civil Twilight 7:11 AM CDT 7:14 PM CDT
Nautical Twilight 6:43 AM CDT 7:41 PM CDT
Astronomical Twilight 6:16 AM CDT 8:09 PM CDT
Moon 6:11 AM CDT (10/25) 5:52 PM CDT (10/25)
Length of Visible Light 12h 03m
Length of Day
11h 15m
Waning Crescent, 2% of the Moon is Illuminated
Oct 25
Waning Crescent
Oct 26
New
Nov 2
First Quarter
Nov 10
Full
Nov 18
Last Quarter

Hourly Weather History & Observations

Time (CDT) Temp. Heat Index Dew Point Humidity Pressure Visibility Wind Dir Wind Speed Gust Speed Precip Events Conditions
12:15 AM 75.9 °F - 67.8 °F 76% 30.13 in 10.0 mi SSE 8.1 mph - N/A   Clear
12:35 AM 76.1 °F - 67.6 °F 75% 30.13 in 10.0 mi SSE 6.9 mph - N/A   Clear
12:55 AM 76.1 °F - 67.8 °F 75% 30.13 in 10.0 mi SSE 6.9 mph - N/A   Clear
1:15 AM 76.1 °F - 68.0 °F 76% 30.12 in 10.0 mi South 5.8 mph - N/A   Clear
1:35 AM 76.1 °F - 67.8 °F 75% 30.12 in 10.0 mi South 5.8 mph - N/A   Clear
2:15 AM 75.4 °F - 66.6 °F 74% 30.12 in 10.0 mi South 5.8 mph - N/A   Clear
2:35 AM 75.4 °F - 66.6 °F 74% 30.11 in 10.0 mi SSE 6.9 mph - N/A   Clear
2:55 AM 75.7 °F - 66.7 °F 74% 30.11 in 10.0 mi SSE 6.9 mph - N/A   Clear
3:15 AM 75.6 °F - 67.1 °F 75% 30.10 in 10.0 mi South 6.9 mph - N/A   Clear
3:35 AM 75.6 °F - 66.9 °F 74% 30.10 in 10.0 mi South 6.9 mph - N/A   Clear
3:55 AM 75.6 °F - 66.4 °F 73% 30.10 in 10.0 mi South 6.9 mph - N/A   Clear
4:15 AM 75.4 °F - 66.9 °F 75% 30.09 in 10.0 mi South 5.8 mph - N/A   Clear
4:35 AM 75.2 °F - 67.3 °F 76% 30.09 in 10.0 mi South 5.8 mph - N/A   Clear
4:55 AM 75.6 °F - 67.8 °F 77% 30.09 in 10.0 mi South 6.9 mph - N/A   Clear
5:15 AM 75.6 °F - 68.0 °F 77% 30.09 in 10.0 mi South 6.9 mph - N/A   Clear
5:35 AM 75.7 °F - 68.0 °F 77% 30.09 in 10.0 mi South 5.8 mph - N/A   Scattered Clouds
5:55 AM 75.6 °F - 68.0 °F 77% 30.10 in 10.0 mi South 4.6 mph - N/A   Clear
6:15 AM 75.2 °F - 68.0 °F 78% 30.10 in 10.0 mi South 5.8 mph - N/A   Clear
6:35 AM 75.2 °F - 67.8 °F 78% 30.10 in 10.0 mi South 4.6 mph - N/A   Clear
6:55 AM 75.0 °F - 67.6 °F 78% 30.10 in 10.0 mi South 4.6 mph - N/A   Clear
7:15 AM 74.7 °F - 68.0 °F 80% 30.10 in 10.0 mi South 4.6 mph - N/A   Clear
7:35 AM 74.1 °F - 68.0 °F 81% 30.11 in 10.0 mi SSW 4.6 mph - N/A   Clear
7:55 AM 73.4 °F - 68.0 °F 83% 30.11 in 10.0 mi Calm Calm - N/A   Clear
8:15 AM 72.9 °F - 68.2 °F 85% 30.11 in 10.0 mi Calm Calm - N/A   Scattered Clouds
8:35 AM 74.5 °F - 68.9 °F 83% 30.12 in 10.0 mi Calm Calm - N/A   Clear
8:55 AM 75.6 °F - 68.9 °F 80% 30.12 in 10.0 mi SSW 3.5 mph - N/A   Clear
9:15 AM 78.6 °F - 68.4 °F 71% 30.12 in 10.0 mi SSW 8.1 mph - N/A   Clear
9:35 AM 80.2 °F 82.7 °F 67.6 °F 65% 30.13 in 10.0 mi SSW 8.1 mph - N/A   Clear
9:55 AM 81.3 °F 84.0 °F 67.8 °F 63% 30.13 in 10.0 mi South 6.9 mph - N/A   Scattered Clouds
10:15 AM 82.4 °F 85.2 °F 67.8 °F 61% 30.14 in 10.0 mi South 8.1 mph - N/A   Scattered Clouds
10:35 AM 82.0 °F 84.7 °F 67.3 °F 61% 30.14 in 10.0 mi South 6.9 mph - N/A   Scattered Clouds
10:55 AM 83.7 °F 86.2 °F 66.9 °F 57% 30.13 in 10.0 mi South 9.2 mph - N/A   Scattered Clouds
11:15 AM 84.2 °F 86.6 °F 66.4 °F 55% 30.13 in 10.0 mi South 10.4 mph 17.3 mph N/A   Scattered Clouds
11:35 AM 84.7 °F 87.1 °F 66.2 °F 54% 30.13 in 10.0 mi SSW 11.5 mph 19.6 mph N/A   Mostly Cloudy
11:55 AM 84.7 °F 86.6 °F 65.5 °F 52% 30.12 in 10.0 mi SSW 9.2 mph 20.7 mph N/A   Mostly Cloudy
12:15 PM 84.9 °F 86.8 °F 65.3 °F 52% 30.12 in 10.0 mi SSW 13.8 mph 19.6 mph N/A   Mostly Cloudy
12:35 PM 85.1 °F 86.9 °F 65.3 °F 51% 30.12 in 10.0 mi South 10.4 mph 19.6 mph N/A   Mostly Cloudy
12:55 PM 86.9 °F 88.6 °F 64.9 °F 48% 30.11 in 10.0 mi South 9.2 mph - N/A   Mostly Cloudy
1:15 PM 87.8 °F 89.4 °F 64.4 °F 46% 30.10 in 10.0 mi South 11.5 mph 18.4 mph N/A   Scattered Clouds
1:35 PM 87.3 °F 88.6 °F 64.4 °F 46% 30.09 in 10.0 mi South 12.7 mph 20.7 mph N/A   Scattered Clouds
1:55 PM 86.7 °F 88.1 °F 64.2 °F 47% 30.07 in 10.0 mi South 12.7 mph 18.4 mph N/A   Scattered Clouds
2:15 PM 86.9 °F 88.6 °F 64.9 °F 48% 30.07 in 10.0 mi SSE 13.8 mph 19.6 mph N/A   Scattered Clouds
2:35 PM 87.8 °F 89.4 °F 64.9 °F 46% 30.06 in 10.0 mi SSE 9.2 mph 18.4 mph N/A   Scattered Clouds
2:55 PM 87.6 °F 89.1 °F 64.4 °F 46% 30.05 in 10.0 mi SSE 15.0 mph 21.9 mph N/A   Scattered Clouds
3:35 PM 87.3 °F 88.9 °F 64.9 °F 47% 30.03 in 10.0 mi SE 15.0 mph 21.9 mph N/A   Clear
3:55 PM 86.9 °F 88.6 °F 65.1 °F 48% 30.02 in 10.0 mi SSE 15.0 mph 19.6 mph N/A   Clear
4:15 PM 86.4 °F 88.4 °F 65.5 °F 50% 30.02 in 10.0 mi SE 18.4 mph - N/A   Clear
4:35 PM 85.6 °F 87.6 °F 65.5 °F 51% 30.01 in 10.0 mi SSE 11.5 mph 21.9 mph N/A   Clear
4:55 PM 85.5 °F 87.6 °F 66.2 °F 52% 30.01 in 10.0 mi SSE 16.1 mph 23.0 mph N/A   Clear
5:15 PM 84.7 °F 87.4 °F 66.7 °F 55% 30.00 in 10.0 mi SE 16.1 mph 20.7 mph N/A   Clear
5:35 PM 84.0 °F 86.8 °F 67.3 °F 57% 30.00 in 10.0 mi SE 18.4 mph 21.9 mph N/A   Clear
5:55 PM 83.1 °F 85.9 °F 67.6 °F 59% 30.00 in 10.0 mi SE 17.3 mph - N/A   Clear
6:15 PM 82.2 °F 85.1 °F 67.8 °F 62% 30.00 in 10.0 mi SSE 13.8 mph - N/A   Clear
6:35 PM 81.3 °F 84.1 °F 68.2 °F 64% 30.00 in 10.0 mi SSE 12.7 mph - N/A   Clear
6:55 PM 80.1 °F 82.8 °F 68.5 °F 68% 29.99 in 10.0 mi SE 12.7 mph - N/A   Clear
7:15 PM 79.3 °F - 68.9 °F 70% 29.99 in 10.0 mi SE 11.5 mph - N/A   Clear
7:35 PM 78.8 °F - 69.3 °F 72% 29.99 in 10.0 mi SE 11.5 mph - N/A   Clear
8:15 PM 78.3 °F - 69.3 °F 74% 30.00 in 10.0 mi SSE 11.5 mph - N/A   Clear
8:35 PM 78.3 °F - 69.1 °F 73% 30.00 in 10.0 mi SSE 9.2 mph - N/A   Clear
8:55 PM 78.1 °F - 69.1 °F 74% 30.00 in 10.0 mi SSE 9.2 mph - N/A   Clear
9:15 PM 78.1 °F - 69.1 °F 74% 30.01 in 10.0 mi SSE 8.1 mph - N/A   Clear
9:35 PM 78.1 °F - 69.1 °F 74% 30.01 in 10.0 mi SSE 9.2 mph - N/A   Clear
9:55 PM 78.3 °F - 69.3 °F 74% 30.01 in 10.0 mi SSE 6.9 mph - N/A   Clear
10:15 PM 77.9 °F - 69.6 °F 76% 30.01 in 10.0 mi South 6.9 mph - N/A   Clear
10:35 PM 78.1 °F - 69.8 °F 76% 30.01 in 10.0 mi SSE 9.2 mph - N/A   Clear
10:55 PM 78.1 °F - 69.1 °F 74% 30.01 in 10.0 mi SSE 9.2 mph - N/A   Clear
11:15 PM 77.9 °F - 68.9 °F 74% 30.01 in 10.0 mi SSE 6.9 mph - N/A   Clear
11:35 PM 77.7 °F - 68.9 °F 74% 30.01 in 10.0 mi SSE 8.1 mph - N/A   Clear
11:55 PM 77.5 °F - 68.7 °F 74% 30.00 in 10.0 mi South 9.2 mph - N/A   Clear